createdAt,value
2022-07-28T00:00:59.858Z,0.30
2022-07-28T00:06:01.287Z,0.52
2022-07-28T00:11:02.698Z,0.35
2022-07-28T00:16:04.337Z,0.50
2022-07-28T00:21:05.825Z,0.60
2022-07-28T00:26:11.777Z,0.68
2022-07-28T00:31:13.208Z,0.40
2022-07-28T00:36:15.258Z,0.60
2022-07-28T00:41:19.573Z,0.55
2022-07-28T00:46:21.962Z,0.70
2022-07-28T00:51:26.662Z,0.50
2022-07-28T00:56:28.069Z,0.70
2022-07-28T01:01:29.551Z,0.60
2022-07-28T01:06:54.638Z,0.50
2022-07-28T01:12:09.380Z,0.50
2022-07-28T01:17:24.942Z,0.70
2022-07-28T01:22:28.851Z,0.65
2022-07-28T01:27:38.109Z,0.60
2022-07-28T01:32:44.323Z,0.80
2022-07-28T01:37:47.106Z,0.45
2022-07-28T01:42:50.733Z,0.70
2022-07-28T01:47:53.146Z,0.63
2022-07-28T01:52:54.577Z,0.70
2022-07-28T01:57:56.057Z,0.50
2022-07-28T02:02:57.469Z,0.95
2022-07-28T02:07:59.154Z,0.47
2022-07-28T02:13:00.671Z,0.40
2022-07-28T02:18:02.109Z,0.40
2022-07-28T02:23:03.566Z,0.70
2022-07-28T02:28:06.478Z,0.60
2022-07-28T02:33:11.341Z,0.75
2022-07-28T02:38:24.241Z,0.70
2022-07-28T02:43:49.988Z,0.60
2022-07-28T02:48:52.835Z,0.60
2022-07-28T02:53:54.322Z,0.50
2022-07-28T02:58:55.719Z,0.73
2022-07-28T03:03:57.134Z,0.70
2022-07-28T03:08:58.615Z,0.65
2022-07-28T03:14:01.967Z,0.70
2022-07-28T03:19:03.489Z,0.70
2022-07-28T03:24:05.257Z,0.70
2022-07-28T03:29:07.509Z,0.70
2022-07-28T03:34:11.675Z,0.40
2022-07-28T03:39:15.627Z,0.60
2022-07-28T03:44:17.257Z,0.65
2022-07-28T03:49:30.385Z,0.57
2022-07-28T03:54:31.801Z,0.70
2022-07-28T03:59:33.205Z,0.55
2022-07-28T04:04:34.610Z,0.63
2022-07-28T04:09:36.015Z,0.65
2022-07-28T04:14:37.418Z,0.68
2022-07-28T04:19:38.821Z,0.77
2022-07-28T04:24:40.253Z,0.82
2022-07-28T04:29:41.650Z,0.80
2022-07-28T04:34:43.061Z,0.68
2022-07-28T04:39:45.161Z,0.85
2022-07-28T04:44:46.849Z,0.80
2022-07-28T04:49:48.270Z,0.60
2022-07-28T04:54:49.754Z,0.60
2022-07-28T04:59:53.865Z,0.70
2022-07-28T05:04:58.387Z,0.90
2022-07-28T05:09:59.834Z,0.80
2022-07-28T05:15:01.285Z,0.80
2022-07-28T05:20:03.703Z,0.90
2022-07-28T05:25:06.202Z,1.00
2022-07-28T05:30:08.521Z,0.77
2022-07-28T05:35:10.034Z,0.57
2022-07-28T05:40:16.212Z,0.70
2022-07-28T05:45:18.007Z,0.80
2022-07-28T05:50:21.529Z,0.73
2022-07-28T05:55:23.042Z,0.70
2022-07-28T06:00:24.489Z,0.85
2022-07-28T06:05:26.146Z,1.00
2022-07-28T06:10:28.071Z,0.80
2022-07-28T06:15:29.541Z,1.00
2022-07-28T06:20:30.963Z,0.95
2022-07-28T06:25:32.452Z,1.05
2022-07-28T06:30:33.885Z,1.10
2022-07-28T06:35:45.253Z,0.98
2022-07-28T06:40:49.537Z,1.10
2022-07-28T06:45:51.202Z,0.98
2022-07-28T06:50:52.620Z,0.85
2022-07-28T06:55:54.029Z,1.23
2022-07-28T07:00:55.733Z,1.00
2022-07-28T07:05:57.493Z,0.93
2022-07-28T07:10:58.957Z,1.30
2022-07-28T07:16:00.523Z,1.30
2022-07-28T07:21:02.021Z,1.20
2022-07-28T07:26:03.634Z,1.75
2022-07-28T07:31:05.070Z,1.60
2022-07-28T07:36:06.872Z,1.80
2022-07-28T07:41:08.277Z,2.00
2022-07-28T07:46:09.882Z,2.08
2022-07-28T07:51:15.614Z,2.20
2022-07-28T07:56:18.271Z,2.60
2022-07-28T08:01:19.708Z,2.50
2022-07-28T08:06:26.360Z,2.35
2022-07-28T08:11:28.277Z,2.53
2022-07-28T08:16:29.740Z,2.85
2022-07-28T08:21:31.213Z,2.45
2022-07-28T08:26:32.667Z,2.38
2022-07-28T08:31:35.406Z,2.55
2022-07-28T08:36:37.050Z,2.83
2022-07-28T08:41:46.914Z,2.45
2022-07-28T08:46:51.237Z,2.00
2022-07-28T08:51:52.674Z,2.38
2022-07-28T08:56:54.580Z,2.85
2022-07-28T09:01:57.764Z,2.50
2022-07-28T09:06:59.737Z,2.30
2022-07-28T09:12:07.085Z,2.15
2022-07-28T09:17:08.503Z,2.00
2022-07-28T09:22:09.948Z,1.95
2022-07-28T09:27:12.590Z,1.85
2022-07-28T09:32:17.509Z,1.63
2022-07-28T09:37:28.554Z,1.40
2022-07-28T09:42:45.563Z,1.50
2022-07-28T09:47:47.216Z,1.60
2022-07-28T09:52:48.769Z,1.45
2022-07-28T09:57:50.663Z,1.50
2022-07-28T10:02:53.268Z,1.40
2022-07-28T10:07:54.741Z,1.80
2022-07-28T10:13:04.781Z,1.60
2022-07-28T10:18:06.234Z,1.35
2022-07-28T10:23:11.405Z,1.30
2022-07-28T10:28:12.813Z,1.42
2022-07-28T10:33:14.689Z,1.30
2022-07-28T10:38:16.362Z,1.20
2022-07-28T10:43:17.770Z,1.10
2022-07-28T10:48:21.634Z,1.20
2022-07-28T10:53:42.563Z,1.10
2022-07-28T10:59:04.742Z,1.10
2022-07-28T11:04:07.674Z,1.10
2022-07-28T11:09:17.909Z,1.00
2022-07-28T11:14:37.546Z,0.77
2022-07-28T11:25:20.287Z,0.90
2022-07-28T11:30:25.771Z,0.65
2022-07-28T11:35:27.908Z,0.90
2022-07-28T11:40:35.968Z,0.73
2022-07-28T11:45:38.911Z,0.75
2022-07-28T11:50:42.422Z,0.80
2022-07-28T11:55:55.593Z,0.68
2022-07-28T12:01:20.127Z,0.75
2022-07-28T12:06:28.693Z,0.70
2022-07-28T12:11:32.377Z,0.52
2022-07-28T12:16:35.207Z,0.90
2022-07-28T12:21:46.586Z,0.70
2022-07-28T12:26:50.565Z,0.60
2022-07-28T12:31:56.158Z,0.60
2022-07-28T12:42:04.445Z,0.80
2022-07-28T12:47:07.920Z,0.80
2022-07-28T12:52:24.458Z,0.90
2022-07-28T12:57:48.079Z,0.73
2022-07-28T13:02:51.919Z,0.80
2022-07-28T13:08:04.874Z,1.02
2022-07-28T13:13:07.290Z,0.80
2022-07-28T13:18:08.749Z,1.33
2022-07-28T13:23:10.233Z,0.60
2022-07-28T13:28:25.176Z,0.77
2022-07-28T13:33:26.812Z,0.90
2022-07-28T13:38:29.717Z,0.70
2022-07-28T13:43:36.026Z,0.80
2022-07-28T13:48:40.278Z,0.77
2022-07-28T13:54:00.316Z,0.75
2022-07-28T13:59:01.729Z,0.57
2022-07-28T14:04:04.365Z,0.70
2022-07-28T14:09:05.817Z,0.90
2022-07-28T14:14:08.317Z,0.68
2022-07-28T14:19:16.253Z,0.95
2022-07-28T14:24:24.384Z,0.70
2022-07-28T14:29:27.602Z,1.05
2022-07-28T14:34:29.022Z,0.77
2022-07-28T14:39:30.456Z,0.70
2022-07-28T14:44:31.864Z,1.00
2022-07-28T14:49:34.473Z,0.93
2022-07-28T14:54:35.877Z,1.00
2022-07-28T14:59:37.290Z,1.08
2022-07-28T15:04:38.698Z,1.02
2022-07-28T15:09:44.235Z,0.82
2022-07-28T15:14:47.629Z,1.08
2022-07-28T15:19:49.038Z,0.85
2022-07-28T15:24:50.542Z,1.00
2022-07-28T15:29:52.494Z,1.00
2022-07-28T15:34:54.166Z,1.30
2022-07-28T15:39:55.673Z,1.15
2022-07-28T15:45:01.017Z,1.20
2022-07-28T15:50:02.862Z,1.38
2022-07-28T15:55:04.626Z,1.45
2022-07-28T16:00:06.592Z,1.25
2022-07-28T16:05:08.110Z,1.17
2022-07-28T16:10:09.625Z,1.20
2022-07-28T16:15:11.037Z,1.02
2022-07-28T16:20:12.482Z,0.95
2022-07-28T16:25:16.877Z,0.90
2022-07-28T16:30:18.816Z,1.05
2022-07-28T16:35:20.266Z,1.02
2022-07-28T16:40:21.725Z,1.13
2022-07-28T16:45:23.397Z,1.08
2022-07-28T16:50:32.669Z,1.30
2022-07-28T16:55:34.257Z,1.10
2022-07-28T17:00:35.897Z,1.10
2022-07-28T17:05:37.546Z,1.00
2022-07-28T17:10:38.950Z,1.08
2022-07-28T17:15:40.373Z,1.08
2022-07-28T17:20:41.892Z,1.00
2022-07-28T17:26:04.967Z,1.00
2022-07-28T17:31:04.763Z,1.00
2022-07-28T17:36:06.326Z,1.02
2022-07-28T17:41:09.038Z,1.17
2022-07-28T17:46:11.251Z,0.80
2022-07-28T17:51:13.597Z,0.98
2022-07-28T17:56:15.017Z,0.90
2022-07-28T18:01:16.558Z,0.98
2022-07-28T18:06:18.023Z,0.95
2022-07-28T18:11:19.437Z,0.95
2022-07-28T18:16:21.097Z,0.77
2022-07-28T18:21:22.561Z,0.95
2022-07-28T18:26:24.014Z,1.08
2022-07-28T18:31:25.529Z,1.10
2022-07-28T18:36:26.978Z,1.00
2022-07-28T18:41:28.897Z,1.00
2022-07-28T18:46:36.125Z,0.90
2022-07-28T18:51:37.661Z,1.10
2022-07-28T18:56:39.081Z,1.00
2022-07-28T19:01:40.525Z,1.30
2022-07-28T19:06:41.997Z,1.00
2022-07-28T19:11:46.203Z,1.02
2022-07-28T19:16:48.055Z,1.23
2022-07-28T19:21:49.497Z,0.98
2022-07-28T19:26:51.431Z,1.02
2022-07-28T19:31:52.906Z,0.90
2022-07-28T19:36:54.705Z,1.10
2022-07-28T19:41:56.127Z,1.00
2022-07-28T19:46:58.144Z,1.00
2022-07-28T19:52:01.148Z,0.95
2022-07-28T19:57:02.607Z,0.80
2022-07-28T20:02:14.191Z,1.00
2022-07-28T20:07:15.797Z,0.73
2022-07-28T20:12:17.550Z,1.05
2022-07-28T20:17:37.085Z,0.90
2022-07-28T20:22:39.774Z,1.00
2022-07-28T20:27:41.937Z,0.93
2022-07-28T20:32:44.069Z,0.98
2022-07-28T20:37:45.544Z,0.85
2022-07-28T20:42:52.544Z,0.90
2022-07-28T20:47:54.484Z,0.90
2022-07-28T20:52:55.997Z,1.10
2022-07-28T20:57:57.469Z,1.00
2022-07-28T21:02:59.020Z,1.10
2022-07-28T21:08:06.018Z,0.98
2022-07-28T21:13:10.869Z,0.82
2022-07-28T21:18:12.350Z,1.00
2022-07-28T21:23:13.769Z,1.05
2022-07-28T21:28:33.726Z,0.80
2022-07-28T21:33:35.150Z,1.00
2022-07-28T21:38:36.622Z,0.90
2022-07-28T21:43:38.089Z,0.93
2022-07-28T21:48:39.633Z,1.00
2022-07-28T21:53:42.059Z,0.90
2022-07-28T21:58:43.493Z,0.82
2022-07-28T22:03:44.962Z,1.15
2022-07-28T22:08:49.946Z,0.93
2022-07-28T22:13:51.418Z,1.00
2022-07-28T22:18:52.826Z,0.90
2022-07-28T22:23:54.229Z,0.90
2022-07-28T22:28:55.634Z,1.08
2022-07-28T22:33:57.404Z,1.00
2022-07-28T22:38:59.053Z,0.80
2022-07-28T22:44:00.481Z,1.20
2022-07-28T22:49:01.994Z,1.00
2022-07-28T22:54:03.473Z,0.80
2022-07-28T22:59:04.976Z,1.00
2022-07-28T23:04:06.953Z,1.10
2022-07-28T23:09:09.147Z,0.93
2022-07-28T23:14:10.557Z,1.08
2022-07-28T23:19:12.258Z,1.00
2022-07-28T23:24:14.122Z,0.98
2022-07-28T23:29:15.731Z,0.98
2022-07-28T23:34:17.574Z,1.10
2022-07-28T23:39:19.389Z,0.90
2022-07-28T23:44:20.809Z,0.90
2022-07-28T23:49:22.401Z,1.00
2022-07-28T23:54:23.888Z,1.00
2022-07-28T23:59:25.297Z,0.95
